This is the latest recevied weather packets stored in our database for station/object IT9FDP-13. If no packets are shown the sender has not sent any weather packets the latest 10 day(s).
| Time | Temp. | Humidity | Pressure | Rain* | Wind** | Luminosity | Snow |
|---|---|---|---|---|---|---|---|
| 1777239337 | 16.67° C | 74% | 1018.6 hPa | 0 mm | - | - | - |
| 1777237827 | 16.67° C | 74% | 1018.6 hPa | 0 mm | - | - | - |
| 1777234547 | 17.22° C | 72% | 1018.6 hPa | 0 mm | - | - | - |
| 1777233021 | 17.22° C | 72% | 1018.6 hPa | 0 mm | - | - | - |
| 1777230622 | 17.22° C | 71% | 1018.3 hPa | 0 mm | - | - | - |
| 1777228519 | 17.22° C | 70% | 1018 hPa | 0 mm | - | - | - |
| 1777225522 | 17.78° C | 69% | 1017.3 hPa | 0 mm | - | - | - |
| 1777224018 | 17.78° C | 69% | 1017.4 hPa | 0 mm | - | - | - |
| 1777223439 | 18.33° C | 68% | 1017.4 hPa | 0 mm | - | - | - |
| 1777220137 | 18.89° C | 66% | 1017.3 hPa | 0 mm | - | - | - |
| 1777219222 | 18.89° C | 65% | 1017.2 hPa | 0 mm | - | - | - |
| 1777218923 | 18.89° C | 64% | 1017.3 hPa | 0 mm | - | - | - |
| 1777218323 | 18.89° C | 62% | 1017.2 hPa | 0 mm | - | - | - |
| 1777215023 | 19.44° C | 62% | 1017 hPa | 0 mm | - | - | - |
| 1777213217 | 19.44° C | 64% | 1017.2 hPa | 0 mm | - | - | - |
| 1777212647 | 19.44° C | 64% | 1017.2 hPa | 0 mm | - | - | - |
| 1777212020 | 19.44° C | 64% | 1017.2 hPa | 0 mm | - | - | - |
| 1777211726 | 19.44° C | 63% | 1017.3 hPa | 0 mm | - | - | - |
| 1777209019 | 20.56° C | 57% | 1017.5 hPa | 0 mm | - | - | - |
| 1777208742 | 20.56° C | 58% | 1017.6 hPa | 0 mm | - | - | - |
| 1777207822 | 21.11° C | 57% | 1017.6 hPa | 0 mm | - | - | - |
| 1777205120 | 20° C | 65% | 1017.8 hPa | 0 mm | - | - | - |
| 1777204817 | 19.44° C | 65% | 1017.7 hPa | 0 mm | - | - | - |
| 1777203018 | 19.44° C | 65% | 1017.9 hPa | 0 mm | - | - | - |
| 1777202139 | 19.44° C | 64% | 1017.9 hPa | 0 mm | - | - | - |
* Rain latest hour (hover to see other rain measurements)
** Current wind speed in m/s (hover to see current wind gust speed)